»·PEaware :: N2102W KRAL-KTOA

N2102W :: KRAL-KTOA

FLIGHT INFORMATION

Flight Status: Arrived
Operator: Privately registered:
United States
More flights under this callsign
Pilot: Eric G. (5941)
Aircraft: Unknown
(BEL9)
More flights by this aircraft type
Origin: KRAL Riverside Mun
United States
Destination: KTOA Zamperini
United States
More flights between these airports :: More routes between these airports
Route: +RAL1 PDZ PDZ270/015 DOWDD V394 SLI
File this flight plan on PilotEdge
Remarks: NA
Altitude:
(Current/Filed)
4,000ft
Speed:
(Current/Filed)
185kts
Departed: 18-Sep-20 05:42 PM
Arrived: 18-Sep-20 06:10 PM
Distance/Time
Traveled:
6749nm/0:27
Distance/Time
To Go:
Arrived

Flight Plot

Page will automatically refresh every two minutes.

Flight plan parsing failed; only flown route is shown


Map Options




Map Legend


Flown Route
Filed Route
Departure Airport
Arrival Airport
Navaid (VOR, NDB)
Fix

Horizontal Profiles

Position Reports

Time Latitude Longitude Heading Altitude Ground
Speed
18-Sep-20 17:33 33.950051 -117.437530 352 811ft 0kts
18-Sep-20 17:34 33.950226 -117.436970 103 813ft 6kts
18-Sep-20 17:35 33.949861 -117.435118 77 822ft 6kts
18-Sep-20 17:36 33.949955 -117.434983 21 822ft 0kts
18-Sep-20 17:37 33.949955 -117.434983 21 822ft 0kts
18-Sep-20 17:38 33.949955 -117.434983 21 822ft 0kts
18-Sep-20 17:39 33.949955 -117.434983 21 822ft 0kts
18-Sep-20 17:40 33.950199 -117.434879 17 821ft 7kts
18-Sep-20 17:41 33.952831 -117.446766 277 820ft 117kts
18-Sep-20 17:42 33.957184 -117.493446 284 1962ft 156kts
18-Sep-20 17:43 33.967220 -117.546491 276 2871ft 167kts
18-Sep-20 17:44 33.937154 -117.577143 178 3845ft 159kts
18-Sep-20 17:45 33.917697 -117.539026 57 3848ft 183kts
18-Sep-20 17:46 33.950612 -117.557307 272 3937ft 180kts
18-Sep-20 17:47 33.950639 -117.618090 276 3953ft 182kts
18-Sep-20 17:48 33.957415 -117.678906 279 3950ft 183kts
18-Sep-20 17:49 33.966396 -117.739462 283 3948ft 183kts
18-Sep-20 17:50 33.976427 -117.789175 283 3946ft 183kts
18-Sep-20 17:51 33.970886 -117.839976 202 3956ft 182kts
18-Sep-20 17:52 33.923284 -117.859692 198 3940ft 181kts
18-Sep-20 17:53 33.875649 -117.879178 201 3936ft 179kts
18-Sep-20 17:54 33.835577 -117.910283 243 3939ft 178kts
18-Sep-20 17:55 33.793178 -117.929134 180 3925ft 179kts
18-Sep-20 17:56 33.743291 -117.929109 180 3924ft 179kts
18-Sep-20 17:57 33.693424 -117.928954 180 3922ft 178kts
18-Sep-20 17:58 33.643799 -117.928809 180 3922ft 178kts
18-Sep-20 17:59 33.604484 -117.948706 274 3928ft 175kts
18-Sep-20 18:00 33.628808 -117.999309 302 3917ft 176kts
18-Sep-20 18:01 33.655689 -118.048447 302 3919ft 175kts
18-Sep-20 18:02 33.670954 -118.102909 285 2888ft 168kts
18-Sep-20 18:03 33.683778 -118.155796 295 1918ft 156kts
18-Sep-20 18:04 33.707008 -118.198925 309 1918ft 153kts
18-Sep-20 18:05 33.734685 -118.236434 308 1328ft 139kts
18-Sep-20 18:06 33.757454 -118.270855 308 1008ft 130kts
18-Sep-20 18:07 33.779066 -118.302798 310 891ft 104kts
18-Sep-20 18:08 33.797060 -118.329251 309 276ft 103kts
18-Sep-20 18:09 33.805825 -118.343670 286 91ft 0kts
18-Sep-20 18:10 33.804966 -118.345882 214 96ft 12kts
18-Sep-20 18:11 33.804462 -118.345823 136 100ft 0kts
18-Sep-20 18:12 33.804462 -118.345823 136 100ft 0kts
18-Sep-20 18:13 33.804462 -118.345823 136 100ft 0kts
18-Sep-20 18:14 33.804462 -118.345823 136 100ft 0kts
18-Sep-20 18:15 33.804462 -118.345823 136 100ft 0kts
18-Sep-20 18:16 33.804462 -118.345823 136 100ft 0kts
18-Sep-20 18:17 33.804462 -118.345823 136 100ft 0kts
18-Sep-20 18:18 33.804463 -118.345823 136 100ft 0kts
18-Sep-20 18:19 33.804463 -118.345823 136 100ft 0kts
18-Sep-20 18:20 33.804463 -118.345823 136 100ft 0kts
18-Sep-20 18:21 0.000408 0.013975 359 3ft 0kts
18-Sep-20 18:22 0.000408 0.013975 359 3ft 0kts
18-Sep-20 18:23 0.000408 0.013975 359 3ft 0kts

Navigation Log

Ident Type
Flight plan parsing failed, navigation log unavailable